aviador You're here:

LFBY Decoded Metar

DAX in FRANCE
Report Time2018-02-22 06:00:00
UTC Time2018-02-22 06:25:06
Flight Rules ifr IFR
WindCalm
Visibility2000 m
Phenomena:Mist
Clouds:N/A
Expected CloudBase > 800 ft AGL from Temp-Dew spread
CeilingNone
Temp00°C (ISA -15)
Dew Point-2°C (87% RH)
AAT-2.2°C
QNH1015 hPa
Density Alt-1,699 ft
Elevation105 ft
Report Wrong Elevation
Raw Report
METAR LFBY 220600Z 00000KT 2000 BR NSC 00/M02 Q1015=

Extra information for LFBY:More info

Metar Taf Metar & Taf Last 4 Metars F.Rules Stats Wind Profile Meteogram Temp Stats Airport Information Weather charts Add Link Nearby VenuesMetar ALERT Operation Metar Decoded Social comments